sensor_id;sensor_type;location;lat;lon;timestamp;temperature;humidity
16315;DHT22;8266;52.150;4.768;2022-08-02T00:00:54;21.50;99.90
16315;DHT22;8266;52.150;4.768;2022-08-02T00:03:23;21.50;99.90
16315;DHT22;8266;52.150;4.768;2022-08-02T00:05:51;21.40;99.90
16315;DHT22;8266;52.150;4.768;2022-08-02T00:08:18;21.40;99.90
16315;DHT22;8266;52.150;4.768;2022-08-02T00:10:45;21.30;99.90
16315;DHT22;8266;52.150;4.768;2022-08-02T00:13:15;21.20;99.90
16315;DHT22;8266;52.150;4.768;2022-08-02T00:15:43;21.20;99.90
16315;DHT22;8266;52.150;4.768;2022-08-02T00:18:14;21.10;99.90
16315;DHT22;8266;52.150;4.768;2022-08-02T00:20:42;21.10;99.90
16315;DHT22;8266;52.150;4.768;2022-08-02T00:23:09;21.00;99.90
16315;DHT22;8266;52.150;4.768;2022-08-02T00:25:39;21.00;99.90
16315;DHT22;8266;52.150;4.768;2022-08-02T00:28:07;21.00;99.90
16315;DHT22;8266;52.150;4.768;2022-08-02T00:30:35;20.90;99.90
16315;DHT22;8266;52.150;4.768;2022-08-02T00:33:03;20.90;99.90
16315;DHT22;8266;52.150;4.768;2022-08-02T00:35:37;20.90;99.90
16315;DHT22;8266;52.150;4.768;2022-08-02T00:38:07;20.90;99.90
16315;DHT22;8266;52.150;4.768;2022-08-02T00:40:38;20.90;99.90
16315;DHT22;8266;52.150;4.768;2022-08-02T00:43:21;20.90;99.90
16315;DHT22;8266;52.150;4.768;2022-08-02T00:45:51;20.90;99.90
16315;DHT22;8266;52.150;4.768;2022-08-02T00:48:20;20.90;99.90
16315;DHT22;8266;52.150;4.768;2022-08-02T00:50:51;20.90;99.90
16315;DHT22;8266;52.150;4.768;2022-08-02T00:53:21;20.90;99.90
16315;DHT22;8266;52.150;4.768;2022-08-02T00:55:50;20.90;99.90
16315;DHT22;8266;52.150;4.768;2022-08-02T00:58:20;20.80;99.90
16315;DHT22;8266;52.150;4.768;2022-08-02T01:00:47;20.80;99.90
16315;DHT22;8266;52.150;4.768;2022-08-02T01:03:14;20.70;99.90
16315;DHT22;8266;52.150;4.768;2022-08-02T01:05:43;20.80;99.90
16315;DHT22;8266;52.150;4.768;2022-08-02T01:08:12;20.70;99.90
16315;DHT22;8266;52.150;4.768;2022-08-02T01:10:39;20.70;99.90
16315;DHT22;8266;52.150;4.768;2022-08-02T01:13:12;20.60;99.90
16315;DHT22;8266;52.150;4.768;2022-08-02T01:15:44;20.60;99.90
16315;DHT22;8266;52.150;4.768;2022-08-02T01:18:21;20.60;99.90
16315;DHT22;8266;52.150;4.768;2022-08-02T01:21:22;20.50;99.90
16315;DHT22;8266;52.150;4.768;2022-08-02T01:24:03;20.60;99.90
16315;DHT22;8266;52.150;4.768;2022-08-02T01:26:42;20.60;99.90
16315;DHT22;8266;52.150;4.768;2022-08-02T01:29:16;20.60;99.90
16315;DHT22;8266;52.150;4.768;2022-08-02T01:31:49;20.60;99.90
16315;DHT22;8266;52.150;4.768;2022-08-02T01:34:23;20.60;99.90
16315;DHT22;8266;52.150;4.768;2022-08-02T01:36:57;20.60;99.90
16315;DHT22;8266;52.150;4.768;2022-08-02T01:39:29;20.60;99.90
16315;DHT22;8266;52.150;4.768;2022-08-02T01:41:57;20.50;99.90
16315;DHT22;8266;52.150;4.768;2022-08-02T01:44:32;20.50;99.90
16315;DHT22;8266;52.150;4.768;2022-08-02T01:47:03;20.40;99.90
16315;DHT22;8266;52.150;4.768;2022-08-02T01:49:38;20.40;99.90
16315;DHT22;8266;52.150;4.768;2022-08-02T01:52:10;20.40;99.90
16315;DHT22;8266;52.150;4.768;2022-08-02T01:54:49;20.40;99.90
16315;DHT22;8266;52.150;4.768;2022-08-02T01:57:19;20.30;99.90
16315;DHT22;8266;52.150;4.768;2022-08-02T01:59:49;20.30;99.90
16315;DHT22;8266;52.150;4.768;2022-08-02T02:02:18;20.30;99.90
16315;DHT22;8266;52.150;4.768;2022-08-02T02:04:47;20.30;99.90
16315;DHT22;8266;52.150;4.768;2022-08-02T02:07:16;20.30;99.90
16315;DHT22;8266;52.150;4.768;2022-08-02T02:09:48;20.20;99.90
16315;DHT22;8266;52.150;4.768;2022-08-02T02:12:17;20.20;99.90
16315;DHT22;8266;52.150;4.768;2022-08-02T02:14:45;20.20;99.90
16315;DHT22;8266;52.150;4.768;2022-08-02T02:17:15;20.20;99.90
16315;DHT22;8266;52.150;4.768;2022-08-02T02:19:43;20.20;99.90
16315;DHT22;8266;52.150;4.768;2022-08-02T02:22:11;20.10;99.90
16315;DHT22;8266;52.150;4.768;2022-08-02T02:24:38;20.00;99.90
16315;DHT22;8266;52.150;4.768;2022-08-02T02:27:11;20.00;99.90
16315;DHT22;8266;52.150;4.768;2022-08-02T02:29:43;19.90;99.90
16315;DHT22;8266;52.150;4.768;2022-08-02T02:32:14;19.90;99.90
16315;DHT22;8266;52.150;4.768;2022-08-02T02:34:44;19.80;99.90
16315;DHT22;8266;52.150;4.768;2022-08-02T02:37:16;19.80;99.90
16315;DHT22;8266;52.150;4.768;2022-08-02T02:39:49;19.80;99.90
16315;DHT22;8266;52.150;4.768;2022-08-02T02:42:18;19.70;99.90
16315;DHT22;8266;52.150;4.768;2022-08-02T02:44:53;19.80;99.90
16315;DHT22;8266;52.150;4.768;2022-08-02T02:47:23;19.70;99.90
16315;DHT22;8266;52.150;4.768;2022-08-02T02:49:51;19.80;99.90
16315;DHT22;8266;52.150;4.768;2022-08-02T02:52:23;19.70;99.90
16315;DHT22;8266;52.150;4.768;2022-08-02T02:54:51;19.70;99.90
16315;DHT22;8266;52.150;4.768;2022-08-02T02:57:19;19.70;99.90
16315;DHT22;8266;52.150;4.768;2022-08-02T02:59:48;19.70;99.90
16315;DHT22;8266;52.150;4.768;2022-08-02T03:02:16;19.70;99.90
16315;DHT22;8266;52.150;4.768;2022-08-02T03:04:46;19.60;99.90
16315;DHT22;8266;52.150;4.768;2022-08-02T03:07:13;19.60;99.90
16315;DHT22;8266;52.150;4.768;2022-08-02T03:09:40;19.60;99.90
16315;DHT22;8266;52.150;4.768;2022-08-02T03:12:10;19.60;99.90
16315;DHT22;8266;52.150;4.768;2022-08-02T03:14:42;19.50;99.90
16315;DHT22;8266;52.150;4.768;2022-08-02T03:17:11;19.50;99.90
16315;DHT22;8266;52.150;4.768;2022-08-02T03:19:38;19.50;99.90
16315;DHT22;8266;52.150;4.768;2022-08-02T03:22:07;19.40;99.90
16315;DHT22;8266;52.150;4.768;2022-08-02T03:24:39;19.40;99.90
16315;DHT22;8266;52.150;4.768;2022-08-02T03:27:09;19.30;99.90
16315;DHT22;8266;52.150;4.768;2022-08-02T03:29:39;19.30;99.90
16315;DHT22;8266;52.150;4.768;2022-08-02T03:32:08;19.30;99.90
16315;DHT22;8266;52.150;4.768;2022-08-02T03:34:41;19.10;99.90
16315;DHT22;8266;52.150;4.768;2022-08-02T03:37:20;19.10;99.90
16315;DHT22;8266;52.150;4.768;2022-08-02T03:39:56;19.10;99.90
16315;DHT22;8266;52.150;4.768;2022-08-02T03:42:24;19.00;99.90
16315;DHT22;8266;52.150;4.768;2022-08-02T03:44:53;19.00;99.90
16315;DHT22;8266;52.150;4.768;2022-08-02T03:47:21;19.00;99.90
16315;DHT22;8266;52.150;4.768;2022-08-02T03:49:51;18.90;99.90
16315;DHT22;8266;52.150;4.768;2022-08-02T03:52:30;18.90;99.90
16315;DHT22;8266;52.150;4.768;2022-08-02T03:54:58;18.90;99.90
16315;DHT22;8266;52.150;4.768;2022-08-02T03:57:26;18.90;99.90
16315;DHT22;8266;52.150;4.768;2022-08-02T03:59:53;18.80;99.90
16315;DHT22;8266;52.150;4.768;2022-08-02T04:02:20;18.80;99.90
16315;DHT22;8266;52.150;4.768;2022-08-02T04:04:47;18.80;99.90
16315;DHT22;8266;52.150;4.768;2022-08-02T04:07:16;18.80;99.90
16315;DHT22;8266;52.150;4.768;2022-08-02T04:09:45;18.80;99.90
16315;DHT22;8266;52.150;4.768;2022-08-02T04:12:15;18.70;99.90
16315;DHT22;8266;52.150;4.768;2022-08-02T04:14:43;18.70;99.90
16315;DHT22;8266;52.150;4.768;2022-08-02T04:17:12;18.70;99.90
16315;DHT22;8266;52.150;4.768;2022-08-02T04:19:46;18.70;99.90
16315;DHT22;8266;52.150;4.768;2022-08-02T04:22:17;18.60;99.90
16315;DHT22;8266;52.150;4.768;2022-08-02T04:24:50;18.50;99.90
16315;DHT22;8266;52.150;4.768;2022-08-02T04:27:21;18.50;99.90
16315;DHT22;8266;52.150;4.768;2022-08-02T04:29:53;18.50;99.90
16315;DHT22;8266;52.150;4.768;2022-08-02T04:32:21;18.50;99.90
16315;DHT22;8266;52.150;4.768;2022-08-02T04:34:53;18.50;99.90
16315;DHT22;8266;52.150;4.768;2022-08-02T04:37:24;18.50;99.90
16315;DHT22;8266;52.150;4.768;2022-08-02T04:39:53;18.50;99.90
16315;DHT22;8266;52.150;4.768;2022-08-02T04:42:20;18.50;99.90
16315;DHT22;8266;52.150;4.768;2022-08-02T04:44:48;18.50;99.90
16315;DHT22;8266;52.150;4.768;2022-08-02T04:47:16;18.50;99.90
16315;DHT22;8266;52.150;4.768;2022-08-02T04:49:43;18.60;99.90
16315;DHT22;8266;52.150;4.768;2022-08-02T04:52:11;18.60;99.90
16315;DHT22;8266;52.150;4.768;2022-08-02T04:54:38;18.60;99.90
16315;DHT22;8266;52.150;4.768;2022-08-02T04:57:08;18.60;99.90
16315;DHT22;8266;52.150;4.768;2022-08-02T04:59:49;18.60;99.90
16315;DHT22;8266;52.150;4.768;2022-08-02T05:02:16;18.70;99.90
16315;DHT22;8266;52.150;4.768;2022-08-02T05:04:43;18.70;99.90
16315;DHT22;8266;52.150;4.768;2022-08-02T05:07:10;18.70;99.90
16315;DHT22;8266;52.150;4.768;2022-08-02T05:09:37;18.70;99.90
16315;DHT22;8266;52.150;4.768;2022-08-02T05:12:05;18.70;99.90
16315;DHT22;8266;52.150;4.768;2022-08-02T05:14:33;18.70;99.90
16315;DHT22;8266;52.150;4.768;2022-08-02T05:17:00;18.80;99.90
16315;DHT22;8266;52.150;4.768;2022-08-02T05:19:28;18.80;99.90
16315;DHT22;8266;52.150;4.768;2022-08-02T05:21:54;18.80;99.90
16315;DHT22;8266;52.150;4.768;2022-08-02T05:24:21;18.90;99.90
16315;DHT22;8266;52.150;4.768;2022-08-02T05:26:48;19.00;99.90
16315;DHT22;8266;52.150;4.768;2022-08-02T05:29:15;19.00;99.90
16315;DHT22;8266;52.150;4.768;2022-08-02T05:31:44;19.10;99.90
16315;DHT22;8266;52.150;4.768;2022-08-02T05:34:11;19.10;99.90
16315;DHT22;8266;52.150;4.768;2022-08-02T05:36:38;19.20;99.90
16315;DHT22;8266;52.150;4.768;2022-08-02T05:39:05;19.30;99.90
16315;DHT22;8266;52.150;4.768;2022-08-02T05:41:33;19.30;99.90
16315;DHT22;8266;52.150;4.768;2022-08-02T05:44:00;19.30;99.90
16315;DHT22;8266;52.150;4.768;2022-08-02T05:46:28;19.30;99.90
16315;DHT22;8266;52.150;4.768;2022-08-02T05:48:56;19.40;99.90
16315;DHT22;8266;52.150;4.768;2022-08-02T05:51:32;19.40;99.90
16315;DHT22;8266;52.150;4.768;2022-08-02T05:54:14;19.40;99.90
16315;DHT22;8266;52.150;4.768;2022-08-02T05:56:50;19.30;99.90
16315;DHT22;8266;52.150;4.768;2022-08-02T05:59:27;19.40;99.90
16315;DHT22;8266;52.150;4.768;2022-08-02T06:02:02;19.30;99.90
16315;DHT22;8266;52.150;4.768;2022-08-02T06:04:45;19.30;99.90
16315;DHT22;8266;52.150;4.768;2022-08-02T06:07:17;19.30;99.90
16315;DHT22;8266;52.150;4.768;2022-08-02T06:09:46;19.40;99.90
16315;DHT22;8266;52.150;4.768;2022-08-02T06:12:15;19.40;99.90
16315;DHT22;8266;52.150;4.768;2022-08-02T06:14:42;19.40;99.90
16315;DHT22;8266;52.150;4.768;2022-08-02T06:17:11;19.40;99.90
16315;DHT22;8266;52.150;4.768;2022-08-02T06:19:44;19.40;99.90
16315;DHT22;8266;52.150;4.768;2022-08-02T06:22:13;19.50;99.90
16315;DHT22;8266;52.150;4.768;2022-08-02T06:24:43;19.50;99.90
16315;DHT22;8266;52.150;4.768;2022-08-02T06:27:13;19.60;99.90
16315;DHT22;8266;52.150;4.768;2022-08-02T06:29:42;19.70;99.90
16315;DHT22;8266;52.150;4.768;2022-08-02T06:32:09;19.70;99.90
16315;DHT22;8266;52.150;4.768;2022-08-02T06:34:37;19.80;99.90
16315;DHT22;8266;52.150;4.768;2022-08-02T06:37:13;19.90;99.90
16315;DHT22;8266;52.150;4.768;2022-08-02T06:39:44;20.00;99.90
16315;DHT22;8266;52.150;4.768;2022-08-02T06:42:16;20.10;99.90
16315;DHT22;8266;52.150;4.768;2022-08-02T06:44:45;20.30;99.90
16315;DHT22;8266;52.150;4.768;2022-08-02T06:47:12;20.40;99.90
16315;DHT22;8266;52.150;4.768;2022-08-02T06:49:39;20.60;99.90
16315;DHT22;8266;52.150;4.768;2022-08-02T06:52:08;20.80;99.90
16315;DHT22;8266;52.150;4.768;2022-08-02T06:54:35;21.10;99.90
16315;DHT22;8266;52.150;4.768;2022-08-02T06:57:03;21.30;99.90
16315;DHT22;8266;52.150;4.768;2022-08-02T06:59:30;21.60;99.90
16315;DHT22;8266;52.150;4.768;2022-08-02T07:01:57;21.80;99.90
16315;DHT22;8266;52.150;4.768;2022-08-02T07:04:28;22.00;99.90
16315;DHT22;8266;52.150;4.768;2022-08-02T07:06:55;22.20;99.90
16315;DHT22;8266;52.150;4.768;2022-08-02T07:09:23;22.50;99.90
16315;DHT22;8266;52.150;4.768;2022-08-02T07:11:50;22.70;99.90
16315;DHT22;8266;52.150;4.768;2022-08-02T07:14:17;22.90;99.90
16315;DHT22;8266;52.150;4.768;2022-08-02T07:16:44;23.20;99.90
16315;DHT22;8266;52.150;4.768;2022-08-02T07:19:11;23.40;99.90
16315;DHT22;8266;52.150;4.768;2022-08-02T07:21:38;23.70;99.90
16315;DHT22;8266;52.150;4.768;2022-08-02T07:24:07;24.00;99.90
16315;DHT22;8266;52.150;4.768;2022-08-02T07:26:36;24.30;99.90
16315;DHT22;8266;52.150;4.768;2022-08-02T07:29:03;24.60;99.90
16315;DHT22;8266;52.150;4.768;2022-08-02T07:31:30;24.90;99.90
16315;DHT22;8266;52.150;4.768;2022-08-02T07:33:57;25.20;99.90
16315;DHT22;8266;52.150;4.768;2022-08-02T07:36:24;25.60;99.90
16315;DHT22;8266;52.150;4.768;2022-08-02T07:38:51;25.80;99.90
16315;DHT22;8266;52.150;4.768;2022-08-02T07:41:18;26.10;99.90
16315;DHT22;8266;52.150;4.768;2022-08-02T07:43:46;26.40;99.90
16315;DHT22;8266;52.150;4.768;2022-08-02T07:46:13;26.60;99.90
16315;DHT22;8266;52.150;4.768;2022-08-02T07:48:40;26.90;99.90
16315;DHT22;8266;52.150;4.768;2022-08-02T07:51:07;27.10;99.90
16315;DHT22;8266;52.150;4.768;2022-08-02T07:53:34;27.20;99.90
16315;DHT22;8266;52.150;4.768;2022-08-02T07:56:14;27.40;99.90
16315;DHT22;8266;52.150;4.768;2022-08-02T07:58:45;27.50;99.90
16315;DHT22;8266;52.150;4.768;2022-08-02T08:01:12;27.60;99.90
16315;DHT22;8266;52.150;4.768;2022-08-02T08:03:43;27.70;99.90
16315;DHT22;8266;52.150;4.768;2022-08-02T08:06:13;27.80;99.90
16315;DHT22;8266;52.150;4.768;2022-08-02T08:08:40;27.90;99.90
16315;DHT22;8266;52.150;4.768;2022-08-02T08:11:10;28.00;99.90
16315;DHT22;8266;52.150;4.768;2022-08-02T08:13:45;28.00;99.90
16315;DHT22;8266;52.150;4.768;2022-08-02T08:16:17;28.10;99.90
16315;DHT22;8266;52.150;4.768;2022-08-02T08:18:46;28.20;99.90
16315;DHT22;8266;52.150;4.768;2022-08-02T08:21:13;28.20;99.90
16315;DHT22;8266;52.150;4.768;2022-08-02T08:24:05;28.30;99.90
16315;DHT22;8266;52.150;4.768;2022-08-02T08:26:44;28.30;99.90
16315;DHT22;8266;52.150;4.768;2022-08-02T08:29:17;28.30;99.90
16315;DHT22;8266;52.150;4.768;2022-08-02T08:31:51;28.20;99.90
16315;DHT22;8266;52.150;4.768;2022-08-02T08:34:21;28.20;99.90
16315;DHT22;8266;52.150;4.768;2022-08-02T08:36:55;28.20;99.90
16315;DHT22;8266;52.150;4.768;2022-08-02T08:39:30;28.20;99.90
16315;DHT22;8266;52.150;4.768;2022-08-02T08:42:12;28.20;99.90
16315;DHT22;8266;52.150;4.768;2022-08-02T08:44:42;28.20;99.90
16315;DHT22;8266;52.150;4.768;2022-08-02T08:47:26;28.20;99.90
16315;DHT22;8266;52.150;4.768;2022-08-02T08:50:10;28.20;99.90
16315;DHT22;8266;52.150;4.768;2022-08-02T08:52:41;28.20;99.90
16315;DHT22;8266;52.150;4.768;2022-08-02T08:55:10;28.40;99.90
16315;DHT22;8266;52.150;4.768;2022-08-02T08:57:46;28.40;99.90
16315;DHT22;8266;52.150;4.768;2022-08-02T09:00:20;28.40;99.90
16315;DHT22;8266;52.150;4.768;2022-08-02T09:02:49;28.50;99.90
16315;DHT22;8266;52.150;4.768;2022-08-02T09:05:17;28.60;99.90
16315;DHT22;8266;52.150;4.768;2022-08-02T09:07:47;28.80;99.90
16315;DHT22;8266;52.150;4.768;2022-08-02T09:10:41;29.00;99.90
16315;DHT22;8266;52.150;4.768;2022-08-02T09:13:13;29.10;99.90
16315;DHT22;8266;52.150;4.768;2022-08-02T09:16:09;29.10;99.90
16315;DHT22;8266;52.150;4.768;2022-08-02T09:18:42;29.20;99.80
16315;DHT22;8266;52.150;4.768;2022-08-02T09:21:34;29.10;99.10
16315;DHT22;8266;52.150;4.768;2022-08-02T09:24:16;29.10;99.40
16315;DHT22;8266;52.150;4.768;2022-08-02T09:26:52;29.00;99.00
16315;DHT22;8266;52.150;4.768;2022-08-02T09:29:23;29.00;99.30
16315;DHT22;8266;52.150;4.768;2022-08-02T09:32:15;29.10;99.40
16315;DHT22;8266;52.150;4.768;2022-08-02T09:38:14;29.20;99.20
16315;DHT22;8266;52.150;4.768;2022-08-02T09:40:46;29.30;98.70
16315;DHT22;8266;52.150;4.768;2022-08-02T09:43:39;29.30;98.30
16315;DHT22;8266;52.150;4.768;2022-08-02T09:46:26;29.40;98.10
16315;DHT22;8266;52.150;4.768;2022-08-02T09:49:01;29.40;98.30
16315;DHT22;8266;52.150;4.768;2022-08-02T09:51:50;29.40;98.30
16315;DHT22;8266;52.150;4.768;2022-08-02T09:55:02;29.50;98.00
16315;DHT22;8266;52.150;4.768;2022-08-02T09:57:30;29.50;97.70
16315;DHT22;8266;52.150;4.768;2022-08-02T10:00:23;29.60;97.60
16315;DHT22;8266;52.150;4.768;2022-08-02T10:03:13;29.70;97.10
16315;DHT22;8266;52.150;4.768;2022-08-02T10:05:48;29.80;97.70
16315;DHT22;8266;52.150;4.768;2022-08-02T10:08:47;29.90;96.80
16315;DHT22;8266;52.150;4.768;2022-08-02T10:11:35;30.10;96.50
16315;DHT22;8266;52.150;4.768;2022-08-02T10:14:03;30.40;96.40
16315;DHT22;8266;52.150;4.768;2022-08-02T10:16:33;30.60;95.90
16315;DHT22;8266;52.150;4.768;2022-08-02T10:19:01;30.70;94.80
16315;DHT22;8266;52.150;4.768;2022-08-02T10:21:32;30.80;94.30
16315;DHT22;8266;52.150;4.768;2022-08-02T10:24:05;30.90;94.20
16315;DHT22;8266;52.150;4.768;2022-08-02T10:26:35;30.90;93.40
16315;DHT22;8266;52.150;4.768;2022-08-02T10:29:04;30.90;94.10
16315;DHT22;8266;52.150;4.768;2022-08-02T10:31:35;31.00;94.50
16315;DHT22;8266;52.150;4.768;2022-08-02T10:34:05;31.10;93.50
16315;DHT22;8266;52.150;4.768;2022-08-02T10:36:51;31.30;93.50
16315;DHT22;8266;52.150;4.768;2022-08-02T10:39:37;31.50;92.70
16315;DHT22;8266;52.150;4.768;2022-08-02T10:45:23;31.80;92.00
16315;DHT22;8266;52.150;4.768;2022-08-02T10:48:24;31.90;91.70
16315;DHT22;8266;52.150;4.768;2022-08-02T10:50:56;32.10;90.70
16315;DHT22;8266;52.150;4.768;2022-08-02T10:53:39;32.30;90.60
16315;DHT22;8266;52.150;4.768;2022-08-02T10:56:49;32.40;90.00
16315;DHT22;8266;52.150;4.768;2022-08-02T11:00:00;32.50;87.30
16315;DHT22;8266;52.150;4.768;2022-08-02T11:02:42;32.60;84.40
16315;DHT22;8266;52.150;4.768;2022-08-02T11:05:34;32.60;86.50
16315;DHT22;8266;52.150;4.768;2022-08-02T11:08:25;32.60;83.50
16315;DHT22;8266;52.150;4.768;2022-08-02T11:10:57;32.60;84.90
16315;DHT22;8266;52.150;4.768;2022-08-02T11:13:58;32.60;83.40
16315;DHT22;8266;52.150;4.768;2022-08-02T11:20:17;32.70;79.70
16315;DHT22;8266;52.150;4.768;2022-08-02T11:22:54;32.70;81.90
16315;DHT22;8266;52.150;4.768;2022-08-02T11:26:09;32.70;80.80
16315;DHT22;8266;52.150;4.768;2022-08-02T11:29:10;32.80;81.60
16315;DHT22;8266;52.150;4.768;2022-08-02T11:31:43;32.70;81.50
16315;DHT22;8266;52.150;4.768;2022-08-02T11:34:24;32.70;79.80
16315;DHT22;8266;52.150;4.768;2022-08-02T11:37:01;32.70;80.00
16315;DHT22;8266;52.150;4.768;2022-08-02T11:39:34;32.60;79.50
16315;DHT22;8266;52.150;4.768;2022-08-02T11:42:02;32.70;78.90
16315;DHT22;8266;52.150;4.768;2022-08-02T11:44:39;32.60;79.80
16315;DHT22;8266;52.150;4.768;2022-08-02T11:47:07;32.60;79.30
16315;DHT22;8266;52.150;4.768;2022-08-02T11:49:47;32.60;79.20
16315;DHT22;8266;52.150;4.768;2022-08-02T11:52:18;32.50;79.20
16315;DHT22;8266;52.150;4.768;2022-08-02T11:55:05;32.40;80.00
16315;DHT22;8266;52.150;4.768;2022-08-02T11:57:44;32.40;81.50
16315;DHT22;8266;52.150;4.768;2022-08-02T12:00:17;32.50;80.00
16315;DHT22;8266;52.150;4.768;2022-08-02T12:02:55;32.40;80.40
16315;DHT22;8266;52.150;4.768;2022-08-02T12:05:53;32.50;79.70
16315;DHT22;8266;52.150;4.768;2022-08-02T12:08:26;32.60;80.10
16315;DHT22;8266;52.150;4.768;2022-08-02T12:10:56;32.60;80.10
16315;DHT22;8266;52.150;4.768;2022-08-02T12:13:26;32.60;78.70
16315;DHT22;8266;52.150;4.768;2022-08-02T12:15:56;32.70;77.70
16315;DHT22;8266;52.150;4.768;2022-08-02T12:18:47;32.70;77.50
16315;DHT22;8266;52.150;4.768;2022-08-02T12:21:32;32.70;77.20
16315;DHT22;8266;52.150;4.768;2022-08-02T12:24:01;32.70;78.90
16315;DHT22;8266;52.150;4.768;2022-08-02T12:26:41;32.70;78.20
16315;DHT22;8266;52.150;4.768;2022-08-02T12:29:09;32.70;77.30
16315;DHT22;8266;52.150;4.768;2022-08-02T12:31:41;32.70;78.40
16315;DHT22;8266;52.150;4.768;2022-08-02T12:34:12;32.80;77.90
16315;DHT22;8266;52.150;4.768;2022-08-02T12:36:44;32.80;76.80
16315;DHT22;8266;52.150;4.768;2022-08-02T12:39:35;32.80;75.70
16315;DHT22;8266;52.150;4.768;2022-08-02T12:42:10;32.80;76.10
16315;DHT22;8266;52.150;4.768;2022-08-02T12:44:49;32.80;78.50
16315;DHT22;8266;52.150;4.768;2022-08-02T12:47:24;32.80;75.60
16315;DHT22;8266;52.150;4.768;2022-08-02T12:50:12;32.80;75.00
16315;DHT22;8266;52.150;4.768;2022-08-02T12:53:08;32.90;74.30
16315;DHT22;8266;52.150;4.768;2022-08-02T12:55:47;32.90;74.60
16315;DHT22;8266;52.150;4.768;2022-08-02T12:58:17;32.80;73.40
16315;DHT22;8266;52.150;4.768;2022-08-02T13:00:52;32.80;73.80
16315;DHT22;8266;52.150;4.768;2022-08-02T13:03:34;32.60;74.10
16315;DHT22;8266;52.150;4.768;2022-08-02T13:06:09;32.60;75.10
16315;DHT22;8266;52.150;4.768;2022-08-02T13:08:45;32.60;75.10
16315;DHT22;8266;52.150;4.768;2022-08-02T13:11:13;32.60;74.10
16315;DHT22;8266;52.150;4.768;2022-08-02T13:13:41;32.60;75.40
16315;DHT22;8266;52.150;4.768;2022-08-02T13:16:08;32.70;75.30
16315;DHT22;8266;52.150;4.768;2022-08-02T13:18:37;32.70;75.10
16315;DHT22;8266;52.150;4.768;2022-08-02T13:21:11;32.90;75.30
16315;DHT22;8266;52.150;4.768;2022-08-02T13:23:54;32.90;75.30
16315;DHT22;8266;52.150;4.768;2022-08-02T13:26:28;33.00;74.90
16315;DHT22;8266;52.150;4.768;2022-08-02T13:29:14;33.10;74.20
16315;DHT22;8266;52.150;4.768;2022-08-02T13:31:44;33.00;74.30
16315;DHT22;8266;52.150;4.768;2022-08-02T13:34:15;33.10;74.60
16315;DHT22;8266;52.150;4.768;2022-08-02T13:36:45;33.00;75.30
16315;DHT22;8266;52.150;4.768;2022-08-02T13:39:20;33.10;75.50
16315;DHT22;8266;52.150;4.768;2022-08-02T13:41:58;33.10;75.40
16315;DHT22;8266;52.150;4.768;2022-08-02T13:44:28;33.10;74.90
16315;DHT22;8266;52.150;4.768;2022-08-02T13:47:09;33.10;75.70
16315;DHT22;8266;52.150;4.768;2022-08-02T13:49:51;33.20;77.10
16315;DHT22;8266;52.150;4.768;2022-08-02T13:52:21;33.20;77.40
16315;DHT22;8266;52.150;4.768;2022-08-02T13:54:48;33.20;76.90
16315;DHT22;8266;52.150;4.768;2022-08-02T13:57:23;33.30;77.20
16315;DHT22;8266;52.150;4.768;2022-08-02T13:59:55;33.30;77.60
16315;DHT22;8266;52.150;4.768;2022-08-02T14:02:23;33.40;76.60
16315;DHT22;8266;52.150;4.768;2022-08-02T14:04:55;33.40;77.20
16315;DHT22;8266;52.150;4.768;2022-08-02T14:07:25;33.50;78.40
16315;DHT22;8266;52.150;4.768;2022-08-02T14:09:52;33.50;78.00
16315;DHT22;8266;52.150;4.768;2022-08-02T14:12:20;33.50;78.00
16315;DHT22;8266;52.150;4.768;2022-08-02T14:14:49;33.60;77.70
16315;DHT22;8266;52.150;4.768;2022-08-02T14:17:16;33.60;77.50
16315;DHT22;8266;52.150;4.768;2022-08-02T14:19:44;33.60;77.40
16315;DHT22;8266;52.150;4.768;2022-08-02T14:22:11;33.60;77.20
16315;DHT22;8266;52.150;4.768;2022-08-02T14:24:38;33.60;77.50
16315;DHT22;8266;52.150;4.768;2022-08-02T14:27:06;33.70;77.40
16315;DHT22;8266;52.150;4.768;2022-08-02T14:29:34;33.70;77.20
16315;DHT22;8266;52.150;4.768;2022-08-02T14:32:01;33.70;77.10
16315;DHT22;8266;52.150;4.768;2022-08-02T14:34:28;33.70;77.40
16315;DHT22;8266;52.150;4.768;2022-08-02T14:36:55;33.70;77.20
16315;DHT22;8266;52.150;4.768;2022-08-02T14:39:22;33.70;76.90
16315;DHT22;8266;52.150;4.768;2022-08-02T14:41:49;33.70;76.50
16315;DHT22;8266;52.150;4.768;2022-08-02T14:44:16;33.70;77.10
16315;DHT22;8266;52.150;4.768;2022-08-02T14:46:45;33.60;77.20
16315;DHT22;8266;52.150;4.768;2022-08-02T14:49:13;33.60;75.60
16315;DHT22;8266;52.150;4.768;2022-08-02T14:51:40;33.60;75.40
16315;DHT22;8266;52.150;4.768;2022-08-02T14:54:07;33.60;76.30
16315;DHT22;8266;52.150;4.768;2022-08-02T14:56:35;33.60;76.50
16315;DHT22;8266;52.150;4.768;2022-08-02T14:59:02;33.60;77.30
16315;DHT22;8266;52.150;4.768;2022-08-02T15:01:29;33.60;76.70
16315;DHT22;8266;52.150;4.768;2022-08-02T15:03:58;33.60;76.20
16315;DHT22;8266;52.150;4.768;2022-08-02T15:06:25;33.50;76.30
16315;DHT22;8266;52.150;4.768;2022-08-02T15:08:57;33.50;76.80
16315;DHT22;8266;52.150;4.768;2022-08-02T15:11:25;33.40;77.40
16315;DHT22;8266;52.150;4.768;2022-08-02T15:13:52;33.40;77.40
16315;DHT22;8266;52.150;4.768;2022-08-02T15:16:19;33.40;78.70
16315;DHT22;8266;52.150;4.768;2022-08-02T15:18:46;33.40;77.90
16315;DHT22;8266;52.150;4.768;2022-08-02T15:21:15;33.40;77.70
16315;DHT22;8266;52.150;4.768;2022-08-02T15:23:42;33.30;78.00
16315;DHT22;8266;52.150;4.768;2022-08-02T15:26:09;33.30;77.50
16315;DHT22;8266;52.150;4.768;2022-08-02T15:28:37;33.30;78.00
16315;DHT22;8266;52.150;4.768;2022-08-02T15:31:04;33.20;78.20
16315;DHT22;8266;52.150;4.768;2022-08-02T15:33:31;33.30;78.30
16315;DHT22;8266;52.150;4.768;2022-08-02T15:35:58;33.20;78.50
16315;DHT22;8266;52.150;4.768;2022-08-02T15:38:26;33.20;79.40
16315;DHT22;8266;52.150;4.768;2022-08-02T15:40:53;33.20;79.00
16315;DHT22;8266;52.150;4.768;2022-08-02T15:43:20;33.20;79.30
16315;DHT22;8266;52.150;4.768;2022-08-02T15:45:47;33.20;79.50
16315;DHT22;8266;52.150;4.768;2022-08-02T15:48:14;33.20;80.20
16315;DHT22;8266;52.150;4.768;2022-08-02T15:50:42;33.20;80.10
16315;DHT22;8266;52.150;4.768;2022-08-02T15:53:09;33.20;80.40
16315;DHT22;8266;52.150;4.768;2022-08-02T15:55:38;33.10;80.20
16315;DHT22;8266;52.150;4.768;2022-08-02T15:58:05;33.10;80.10
16315;DHT22;8266;52.150;4.768;2022-08-02T16:00:35;33.10;79.80
16315;DHT22;8266;52.150;4.768;2022-08-02T16:03:04;33.10;80.40
16315;DHT22;8266;52.150;4.768;2022-08-02T16:05:31;33.00;80.20
16315;DHT22;8266;52.150;4.768;2022-08-02T16:07:58;33.00;80.40
16315;DHT22;8266;52.150;4.768;2022-08-02T16:10:25;32.90;80.80
16315;DHT22;8266;52.150;4.768;2022-08-02T16:12:53;32.90;81.60
16315;DHT22;8266;52.150;4.768;2022-08-02T16:15:40;32.80;81.40
16315;DHT22;8266;52.150;4.768;2022-08-02T16:18:07;32.80;81.60
16315;DHT22;8266;52.150;4.768;2022-08-02T16:20:34;32.70;81.90
16315;DHT22;8266;52.150;4.768;2022-08-02T16:23:01;32.70;82.00
16315;DHT22;8266;52.150;4.768;2022-08-02T16:25:29;32.70;82.60
16315;DHT22;8266;52.150;4.768;2022-08-02T16:27:57;32.70;83.40